createdAt,value
2022-11-28T00:04:24.131Z,100361.00
2022-11-28T00:09:27.092Z,100363.69
2022-11-28T00:14:31.228Z,100350.84
2022-11-28T00:19:33.974Z,100348.06
2022-11-28T00:24:36.762Z,100341.78
2022-11-28T00:29:41.482Z,100343.41
2022-11-28T00:34:44.389Z,100333.81
2022-11-28T00:39:47.197Z,100327.00
2022-11-28T00:44:51.338Z,100327.34
2022-11-28T00:49:54.092Z,100323.56
2022-11-28T00:54:57.096Z,100312.56
2022-11-28T01:00:01.289Z,100316.75
2022-11-28T01:05:04.164Z,100314.50
2022-11-28T01:10:08.344Z,100313.22
2022-11-28T01:15:14.361Z,100309.13
2022-11-28T01:20:17.157Z,100317.75
2022-11-28T01:25:20.018Z,100317.38
2022-11-28T01:30:24.124Z,100304.47
2022-11-28T01:35:27.069Z,100309.50
2022-11-28T01:40:30.003Z,100301.91
2022-11-28T01:45:34.721Z,100290.28
2022-11-28T01:50:38.619Z,100275.47
2022-11-28T01:55:47.896Z,100286.78
2022-11-28T02:00:52.288Z,100282.00
2022-11-28T02:05:55.609Z,100276.28
2022-11-28T02:11:16.542Z,100269.78
2022-11-28T02:16:42.978Z,100256.06
2022-11-28T02:21:59.852Z,100246.41
2022-11-28T02:27:38.808Z,100235.19
2022-11-28T02:33:01.097Z,100229.13
2022-11-28T02:38:14.039Z,100220.38
2022-11-28T02:43:26.417Z,100217.16
2022-11-28T02:48:40.501Z,100212.25
2022-11-28T02:53:46.756Z,100199.03
2022-11-28T02:58:49.537Z,100193.09
2022-11-28T03:04:20.033Z,100189.06
2022-11-28T03:09:56.078Z,100180.06
2022-11-28T03:15:02.354Z,100178.44
2022-11-28T03:20:28.590Z,100170.03
2022-11-28T03:25:38.181Z,100168.38
2022-11-28T03:30:46.734Z,100162.16
2022-11-28T03:35:56.404Z,100154.31
2022-11-28T03:41:04.073Z,100149.97
2022-11-28T03:46:12.303Z,100138.78
2022-11-28T03:51:19.659Z,100143.56
2022-11-28T03:56:26.580Z,100142.72
2022-11-28T04:01:35.312Z,100137.63
2022-11-28T04:06:51.819Z,100130.66
2022-11-28T04:11:57.772Z,100132.28
2022-11-28T04:17:09.246Z,100123.63
2022-11-28T04:22:19.207Z,100120.00
2022-11-28T04:27:28.677Z,100113.88
2022-11-28T04:32:34.228Z,100100.66
2022-11-28T04:37:40.894Z,100086.44
2022-11-28T04:42:52.582Z,100083.75
2022-11-28T04:47:56.308Z,100080.53
2022-11-28T04:53:06.692Z,100074.53
2022-11-28T04:58:16.119Z,100075.50
2022-11-28T05:03:19.436Z,100071.00
2022-11-28T05:08:23.917Z,100080.13
2022-11-28T05:13:26.768Z,100071.22
2022-11-28T05:18:29.715Z,100059.63
2022-11-28T05:23:33.924Z,100051.66
2022-11-28T05:28:36.713Z,100038.16
2022-11-28T05:33:39.795Z,100033.19
2022-11-28T05:38:44.822Z,100012.56
2022-11-28T05:43:47.659Z,100007.19
2022-11-28T05:48:50.603Z,100011.78
2022-11-28T05:53:54.752Z,100001.84
2022-11-28T05:58:57.604Z,100016.13
2022-11-28T06:04:01.209Z,100044.97
2022-11-28T06:09:06.342Z,100053.88
2022-11-28T06:14:09.388Z,100062.13
2022-11-28T06:19:13.838Z,100061.06
2022-11-28T06:24:18.417Z,100056.00
2022-11-28T06:29:21.385Z,100061.28
2022-11-28T06:34:24.439Z,100058.66
2022-11-28T06:39:28.784Z,100050.63
2022-11-28T06:44:31.667Z,100031.94
2022-11-28T06:49:34.473Z,100027.53
2022-11-28T06:54:38.758Z,100021.31
2022-11-28T06:59:42.164Z,100035.69
2022-11-28T07:04:45.171Z,100054.47
2022-11-28T07:09:49.291Z,100056.38
2022-11-28T07:14:52.155Z,100052.16
2022-11-28T07:19:55.498Z,100046.91
2022-11-28T07:24:59.886Z,100031.00
2022-11-28T07:30:02.785Z,100018.66
2022-11-28T07:35:08.198Z,100011.44
2022-11-28T07:40:13.520Z,100012.31
2022-11-28T07:45:16.495Z,100020.28
2022-11-28T07:50:19.399Z,100023.91
2022-11-28T07:55:23.871Z,100033.69
2022-11-28T08:00:27.276Z,100025.72
2022-11-28T08:05:30.226Z,100028.41
2022-11-28T08:10:34.455Z,100007.91
2022-11-28T08:15:37.763Z,100001.00
2022-11-28T08:20:40.533Z,99992.78
2022-11-28T08:25:44.716Z,99982.03
2022-11-28T08:30:47.677Z,99981.19
2022-11-28T08:35:50.668Z,100006.94
2022-11-28T08:41:02.298Z,100004.47
2022-11-28T08:46:05.520Z,100006.94
2022-11-28T08:51:09.504Z,100016.75
2022-11-28T08:56:14.085Z,100009.56
2022-11-28T09:01:18.774Z,100016.81
2022-11-28T09:06:22.616Z,100021.31
2022-11-28T09:11:26.942Z,100022.97
2022-11-28T09:16:29.836Z,100019.44
2022-11-28T09:21:32.679Z,100024.78
2022-11-28T09:26:36.850Z,100020.34
2022-11-28T09:31:43.166Z,100018.53
2022-11-28T09:36:50.065Z,100018.47
2022-11-28T09:42:08.386Z,100000.72
2022-11-28T09:47:18.547Z,100013.94
2022-11-28T09:52:31.149Z,100009.44
2022-11-28T09:57:40.384Z,100011.16
2022-11-28T10:02:56.813Z,100013.00
2022-11-28T10:08:13.913Z,100006.75
2022-11-28T10:13:41.213Z,100014.69
2022-11-28T10:18:53.197Z,100014.53
2022-11-28T10:24:00.770Z,100017.38
2022-11-28T10:29:18.512Z,100017.19
2022-11-28T10:34:29.696Z,100012.69
2022-11-28T10:39:32.698Z,99996.38
2022-11-28T10:44:52.537Z,100007.75
2022-11-28T10:50:03.943Z,100013.25
2022-11-28T10:55:23.183Z,100000.25
2022-11-28T11:00:27.357Z,99991.78
2022-11-28T11:05:32.459Z,99979.41
2022-11-28T11:10:40.942Z,99991.47
2022-11-28T11:15:45.841Z,99979.38
2022-11-28T11:20:48.732Z,99978.91
2022-11-28T11:25:54.661Z,99976.78
2022-11-28T11:31:04.292Z,99987.31
2022-11-28T11:36:22.363Z,99992.78
2022-11-28T11:41:30.440Z,99976.69
2022-11-28T11:46:51.358Z,99984.75
2022-11-28T11:51:57.822Z,99971.16
2022-11-28T11:57:30.943Z,99977.25
2022-11-28T12:02:32.308Z,99962.91
2022-11-28T12:07:43.103Z,99957.44
2022-11-28T12:12:46.319Z,99959.16
2022-11-28T12:18:04.206Z,99950.25
2022-11-28T12:23:22.051Z,99956.47
2022-11-28T12:28:39.262Z,99951.97
2022-11-28T12:33:57.015Z,99952.81
2022-11-28T12:39:18.898Z,99945.63
2022-11-28T12:44:31.940Z,99942.00
2022-11-28T12:49:47.470Z,99952.53
2022-11-28T12:55:04.468Z,99951.69
2022-11-28T13:00:15.461Z,99947.91
2022-11-28T13:05:31.754Z,99941.81
2022-11-28T13:10:43.481Z,99940.84
2022-11-28T13:16:00.677Z,99939.97
2022-11-28T13:21:16.247Z,99940.94
2022-11-28T13:26:40.668Z,99930.00
2022-11-28T13:31:51.744Z,99933.56
2022-11-28T13:43:02.392Z,99923.47
2022-11-28T13:48:00.693Z,99929.50
2022-11-28T13:53:21.566Z,99930.47
2022-11-28T13:58:28.414Z,99926.81
2022-11-28T14:03:34.012Z,99927.78
2022-11-28T14:08:42.503Z,99930.56
2022-11-28T14:13:59.381Z,99927.78
2022-11-28T14:19:24.918Z,99922.31
2022-11-28T14:24:45.661Z,99929.13
2022-11-28T14:29:51.839Z,99925.88
2022-11-28T14:34:56.455Z,99924.63
2022-11-28T14:40:01.764Z,99919.81
2022-11-28T14:45:44.461Z,99926.03
2022-11-28T14:50:59.419Z,99920.59
2022-11-28T14:56:24.712Z,99924.78
2022-11-28T15:01:50.475Z,99920.03
2022-11-28T15:06:55.692Z,99927.25
2022-11-28T15:12:12.153Z,99921.56
2022-11-28T15:17:16.261Z,99933.44
2022-11-28T15:22:33.148Z,99932.16
2022-11-28T15:27:37.492Z,99944.31
2022-11-28T15:32:43.373Z,99936.84
2022-11-28T15:37:49.350Z,99941.41
2022-11-28T15:42:54.247Z,99938.16
2022-11-28T15:47:58.263Z,99940.66
2022-11-28T15:53:03.705Z,99933.56
2022-11-28T15:58:20.326Z,99940.84
2022-11-28T16:03:27.258Z,99950.53
2022-11-28T16:08:35.005Z,99937.97
2022-11-28T16:13:41.149Z,99939.69
2022-11-28T16:18:46.595Z,99935.19
2022-11-28T16:23:49.705Z,99937.97
2022-11-28T16:29:03.802Z,99935.72
2022-11-28T16:34:06.963Z,99936.94
2022-11-28T16:39:16.784Z,99934.63
2022-11-28T16:44:23.798Z,99944.38
2022-11-28T16:49:35.541Z,99943.53
2022-11-28T16:54:38.422Z,99944.69
2022-11-28T16:59:43.755Z,99938.91
2022-11-28T17:04:47.445Z,99943.66
2022-11-28T17:09:51.555Z,99941.00
2022-11-28T17:14:58.348Z,99940.25
2022-11-28T17:20:01.352Z,99949.81
2022-11-28T17:25:06.021Z,99947.78
2022-11-28T17:30:14.301Z,99943.81
2022-11-28T17:35:22.862Z,99938.88
2022-11-28T17:40:36.403Z,99951.88
2022-11-28T17:45:40.905Z,99951.44
2022-11-28T17:50:44.757Z,99950.06
2022-11-28T17:55:51.484Z,99947.72
2022-11-28T18:01:00.521Z,99940.09
2022-11-28T18:06:05.245Z,99940.41
2022-11-28T18:11:11.837Z,99939.97
2022-11-28T18:16:18.023Z,99941.47
2022-11-28T18:21:21.187Z,99942.00
2022-11-28T18:26:26.301Z,99951.56
2022-11-28T18:31:31.382Z,99947.56
2022-11-28T18:36:37.353Z,99949.09
2022-11-28T18:41:41.392Z,99949.59
2022-11-28T18:46:45.999Z,99953.69
2022-11-28T18:51:49.469Z,99940.84
2022-11-28T18:56:52.589Z,99942.22
2022-11-28T19:01:56.756Z,99942.03
2022-11-28T19:07:00.446Z,99946.94
2022-11-28T19:12:03.277Z,99946.63
2022-11-28T19:17:08.406Z,99952.66
2022-11-28T19:22:11.801Z,99955.34
2022-11-28T19:27:15.135Z,99951.56
2022-11-28T19:32:20.176Z,99954.06
2022-11-28T19:37:23.750Z,99956.50
2022-11-28T19:42:27.933Z,99953.59
2022-11-28T19:47:32.292Z,99957.16
2022-11-28T19:52:35.239Z,99959.59
2022-11-28T19:57:39.001Z,99965.75
2022-11-28T20:02:43.259Z,99960.00
2022-11-28T20:07:46.070Z,99966.28
2022-11-28T20:12:49.121Z,99967.00
2022-11-28T20:17:53.565Z,99973.03
2022-11-28T20:22:57.479Z,99971.81
2022-11-28T20:28:00.268Z,99974.28
2022-11-28T20:33:04.880Z,99970.72
2022-11-28T20:38:07.665Z,99975.78
2022-11-28T20:43:10.801Z,99977.50
2022-11-28T20:48:14.973Z,99977.50
2022-11-28T20:53:22.195Z,99983.28
2022-11-28T20:58:28.418Z,99981.44
2022-11-28T21:03:33.361Z,99984.13
2022-11-28T21:08:36.288Z,99983.28
2022-11-28T21:13:39.398Z,99984.00
2022-11-28T21:18:44.359Z,99986.47
2022-11-28T21:23:47.439Z,99985.50
2022-11-28T21:28:52.821Z,99980.75
2022-11-28T21:33:58.959Z,99979.13
2022-11-28T21:39:02.772Z,99984.78
2022-11-28T21:44:05.858Z,99984.13
2022-11-28T21:49:10.720Z,99978.88
2022-11-28T21:54:15.856Z,99979.22
2022-11-28T21:59:21.757Z,99976.72
2022-11-28T22:04:27.082Z,99981.38
2022-11-28T22:09:30.182Z,99975.25
2022-11-28T22:14:36.920Z,99975.34
2022-11-28T22:19:42.354Z,99979.28
2022-11-28T22:24:45.592Z,99973.25
2022-11-28T22:29:48.823Z,99980.47
2022-11-28T22:34:53.102Z,99971.66
2022-11-28T22:39:55.959Z,99974.56
2022-11-28T22:44:58.713Z,99976.41
2022-11-28T22:50:02.847Z,99979.09
2022-11-28T22:55:06.878Z,99987.28
2022-11-28T23:00:12.721Z,99989.97
2022-11-28T23:05:17.275Z,99982.97
2022-11-28T23:10:20.441Z,99986.53
2022-11-28T23:15:24.084Z,99987.38
2022-11-28T23:20:28.272Z,99987.38
2022-11-28T23:25:31.303Z,99991.03
2022-11-28T23:30:34.285Z,99997.41
2022-11-28T23:35:38.875Z,99996.56
2022-11-28T23:40:41.783Z,100006.47
2022-11-28T23:45:44.781Z,100011.00
2022-11-28T23:50:49.099Z,100008.38
2022-11-28T23:55:51.901Z,99995.91
